Time;durP1;ratioP1;P1;durP2;ratioP2;P2;SDS_P1;SDS_P2;PMS_P1;PMS_P2;Temp;Humidity;BMP_temperature;BMP_pressure;BME280_temperature;BME280_humidity;BME280_pressure;Samples;Min_cycle;Max_cycle;Signal;HPM_P1;HPM_P2
2022/03/13 00:02:09;;;;;;;13.63;5.93;;;9.10;99.90;;;;;;5097140;28;20384;-79
2022/03/13 00:04:36;;;;;;;16.23;7.32;;;9.10;99.90;;;;;;5097029;28;20488;-80
2022/03/13 00:07:28;;;;;;;39.80;21.42;;;9.20;99.90;;;;;;5096903;28;20020;-79
2022/03/13 00:09:52;;;;;;;10.23;7.20;;;9.20;99.90;;;;;;5096462;28;20098;-80
2022/03/13 00:12:25;;;;;;;24.27;9.80;;;9.30;99.90;;;;;;5095432;28;20024;-80
2022/03/13 00:14:55;;;;;;;19.38;9.88;;;9.30;99.90;;;;;;5095651;28;20024;-79
2022/03/13 00:17:24;;;;;;;20.42;11.20;;;9.30;99.90;;;;;;5095840;28;20024;-79
2022/03/13 00:19:50;;;;;;;35.28;16.73;;;9.30;99.90;;;;;;5095634;28;20038;-79
2022/03/13 00:22:16;;;;;;;28.10;11.18;;;9.30;99.90;;;;;;5096659;28;20079;-80
2022/03/13 00:24:42;;;;;;;17.30;8.68;;;9.30;99.90;;;;;;5095471;28;20555;-79
2022/03/13 00:27:09;;;;;;;15.20;7.05;;;9.30;99.90;;;;;;5096827;28;20078;-79
2022/03/13 00:29:36;;;;;;;14.65;7.68;;;9.30;99.90;;;;;;5095555;28;20028;-79
2022/03/13 00:32:03;;;;;;;23.70;11.73;;;9.30;99.90;;;;;;5095306;28;20020;-79
2022/03/13 00:34:29;;;;;;;31.38;13.60;;;9.30;99.90;;;;;;5075397;28;20031;-80
2022/03/13 00:36:55;;;;;;;32.42;13.38;;;9.30;99.90;;;;;;5096669;28;20020;-79
2022/03/13 00:39:21;;;;;;;38.75;19.58;;;9.30;99.90;;;;;;5100445;28;20043;-80
2022/03/13 00:41:46;;;;;;;29.35;13.60;;;9.30;99.90;;;;;;5100193;28;20032;-80
2022/03/13 00:44:13;;;;;;;39.35;17.73;;;9.40;99.90;;;;;;5099046;28;20036;-81
2022/03/13 00:46:39;;;;;;;21.83;11.45;;;9.30;99.90;;;;;;5100329;28;20016;-81
2022/03/13 00:49:06;;;;;;;42.90;22.73;;;9.30;99.90;;;;;;5100600;28;20563;-80
2022/03/13 00:51:32;;;;;;;8.00;5.00;;;9.30;99.90;;;;;;5098946;28;20028;-80
2022/03/13 00:53:58;;;;;;;15.20;5.93;;;9.40;99.90;;;;;;5099988;28;20028;-81
2022/03/13 00:56:23;;;;;;;9.20;4.70;;;9.40;99.90;;;;;;5100107;28;20031;-81
2022/03/13 00:58:49;;;;;;;7.63;4.35;;;9.40;99.90;;;;;;5098789;28;20035;-79
2022/03/13 01:01:17;;;;;;;8.95;5.07;;;9.40;99.90;;;;;;5100147;28;20392;-79
2022/03/13 01:03:43;;;;;;;8.25;4.05;;;9.50;99.90;;;;;;5098722;28;20039;-80
2022/03/13 01:06:09;;;;;;;9.95;4.93;;;9.50;99.90;;;;;;5099109;28;20024;-79
2022/03/13 01:08:36;;;;;;;10.52;5.32;;;9.50;99.90;;;;;;5099935;28;21362;-80
2022/03/13 01:11:03;;;;;;;10.02;5.38;;;9.50;99.90;;;;;;5098124;28;20012;-80
2022/03/13 01:13:30;;;;;;;7.63;4.85;;;9.50;99.90;;;;;;5100327;28;20469;-80
2022/03/13 01:16:17;;;;;;;10.45;5.95;;;9.40;99.90;;;;;;5098630;28;20484;-80
2022/03/13 01:18:48;;;;;;;9.23;5.53;;;9.50;99.90;;;;;;5098582;28;20028;-80
2022/03/13 01:21:15;;;;;;;14.85;5.68;;;9.40;99.90;;;;;;5098453;28;20085;-80
2022/03/13 01:23:54;;;;;;;14.05;5.28;;;9.50;99.90;;;;;;5099349;28;20858;-80
2022/03/13 01:26:23;;;;;;;16.58;5.20;;;9.50;99.90;;;;;;5099738;28;20019;-79
2022/03/13 01:28:50;;;;;;;11.70;6.03;;;9.50;99.90;;;;;;5098165;28;20024;-79
2022/03/13 01:31:19;;;;;;;13.85;4.75;;;9.50;99.90;;;;;;5098484;28;20020;-79
2022/03/13 01:33:45;;;;;;;7.97;4.57;;;9.50;99.90;;;;;;5099312;28;20085;-79
2022/03/13 01:36:13;;;;;;;8.80;4.38;;;9.50;99.90;;;;;;5096541;28;20024;-80
2022/03/13 01:38:39;;;;;;;6.07;4.45;;;9.60;99.90;;;;;;5097475;28;20048;-81
2022/03/13 01:41:06;;;;;;;8.45;4.93;;;9.60;99.90;;;;;;5099582;28;20023;-80
2022/03/13 01:43:33;;;;;;;7.32;4.13;;;9.60;99.90;;;;;;5099192;28;20032;-80
2022/03/13 01:45:59;;;;;;;6.72;4.05;;;9.70;99.90;;;;;;5098948;28;20365;-79
2022/03/13 01:48:26;;;;;;;6.00;3.60;;;9.70;99.90;;;;;;5098908;28;20036;-79
2022/03/13 01:50:52;;;;;;;5.72;4.03;;;9.70;99.90;;;;;;5097899;28;20020;-79
2022/03/13 01:53:21;;;;;;;9.95;4.63;;;9.70;99.90;;;;;;5099001;28;20027;-80
2022/03/13 01:55:54;;;;;;;5.70;3.90;;;9.70;99.90;;;;;;5098573;28;20587;-80
2022/03/13 01:58:20;;;;;;;6.82;4.32;;;9.70;99.90;;;;;;5098208;28;20512;-80
2022/03/13 02:00:46;;;;;;;7.78;4.20;;;9.80;99.90;;;;;;5097795;28;20024;-80
2022/03/13 02:03:12;;;;;;;4.82;3.83;;;9.80;99.90;;;;;;5097371;28;20020;-80
2022/03/13 02:05:39;;;;;;;6.03;4.10;;;9.80;99.90;;;;;;5092208;28;20178;-80
2022/03/13 02:08:22;;;;;;;6.97;3.97;;;9.80;99.90;;;;;;5095487;28;20024;-80
2022/03/13 02:10:48;;;;;;;10.65;5.05;;;9.90;99.90;;;;;;5099072;28;20387;-79
2022/03/13 02:13:17;;;;;;;7.43;3.75;;;9.90;99.90;;;;;;5098605;28;20052;-80
2022/03/13 02:15:43;;;;;;;8.30;4.78;;;9.90;99.90;;;;;;5098746;28;20038;-80
2022/03/13 02:18:12;;;;;;;7.75;5.07;;;10.00;99.90;;;;;;5098856;28;20031;-80
2022/03/13 02:20:43;;;;;;;8.63;5.22;;;9.90;99.90;;;;;;5098519;28;20023;-81
2022/03/13 02:23:17;;;;;;;;;;;9.90;99.90;;;;;;5098944;28;20024;-80
2022/03/13 02:25:43;;;;;;;10.57;5.35;;;9.90;99.90;;;;;;5097266;28;19911;-79
2022/03/13 02:28:09;;;;;;;11.43;5.43;;;9.90;99.90;;;;;;5098671;28;20028;-79
2022/03/13 02:30:35;;;;;;;7.88;5.35;;;9.90;99.90;;;;;;5098449;28;20024;-79
2022/03/13 02:33:01;;;;;;;12.35;7.90;;;9.90;99.90;;;;;;5097092;28;20100;-80
2022/03/13 02:35:29;;;;;;;10.80;6.43;;;9.90;99.90;;;;;;5098122;28;20031;-79
2022/03/13 02:37:56;;;;;;;8.10;4.68;;;9.90;99.90;;;;;;5096792;28;20488;-79
2022/03/13 02:40:24;;;;;;;9.23;6.10;;;9.80;99.90;;;;;;5098338;28;20400;-79
2022/03/13 02:42:51;;;;;;;8.25;4.47;;;9.90;99.90;;;;;;5096801;28;20016;-80
2022/03/13 02:45:30;;;;;;;10.48;4.53;;;9.90;99.90;;;;;;5098085;28;20051;-80
2022/03/13 02:47:57;;;;;;;7.30;4.90;;;9.90;99.90;;;;;;5098402;28;20028;-79
2022/03/13 02:50:23;;;;;;;9.48;4.72;;;9.90;99.90;;;;;;5098262;28;20107;-79
2022/03/13 02:52:49;;;;;;;9.80;5.10;;;9.90;99.90;;;;;;5096510;28;20079;-80
2022/03/13 02:55:15;;;;;;;9.00;4.63;;;9.90;99.90;;;;;;5085973;28;20459;-80
2022/03/13 02:57:41;;;;;;;8.25;4.80;;;9.90;99.90;;;;;;5097709;28;20024;-81
2022/03/13 03:00:08;;;;;;;7.00;4.80;;;9.90;99.90;;;;;;5097456;28;20046;-79
2022/03/13 03:02:35;;;;;;;9.75;4.80;;;9.90;99.90;;;;;;5098013;28;20016;-80
2022/03/13 03:05:08;;;;;;;6.38;4.25;;;9.90;99.90;;;;;;5097759;28;20045;-80
2022/03/13 03:07:35;;;;;;;6.68;3.97;;;9.90;99.90;;;;;;5096096;28;20146;-80
2022/03/13 03:10:05;;;;;;;9.23;4.28;;;10.00;99.90;;;;;;5097931;28;20169;-80
2022/03/13 03:12:34;;;;;;;10.00;4.78;;;10.00;99.90;;;;;;5097629;28;20057;-80
2022/03/13 03:15:00;;;;;;;9.45;5.60;;;10.00;99.90;;;;;;5096399;28;20118;-79
2022/03/13 03:17:27;;;;;;;5.43;3.50;;;10.00;99.90;;;;;;5096248;28;20055;-80
2022/03/13 03:19:53;;;;;;;5.22;3.67;;;10.00;99.90;;;;;;5096437;28;20480;-80
2022/03/13 03:22:19;;;;;;;8.82;4.20;;;10.00;99.90;;;;;;5097314;28;20046;-78
2022/03/13 03:24:48;;;;;;;7.78;4.07;;;10.10;99.90;;;;;;5097446;28;20031;-79
2022/03/13 03:27:16;;;;;;;6.35;3.55;;;10.00;99.90;;;;;;5097320;28;20486;-80
2022/03/13 03:29:42;;;;;;;7.07;4.15;;;10.10;99.90;;;;;;5097567;28;20024;-80
2022/03/13 03:32:08;;;;;;;5.20;3.88;;;10.10;99.90;;;;;;5097220;28;20027;-79
2022/03/13 03:34:34;;;;;;;5.72;3.33;;;10.10;99.90;;;;;;5097585;28;20487;-80
2022/03/13 03:37:02;;;;;;;7.28;3.58;;;10.10;99.90;;;;;;5111974;27;20033;-80
2022/03/13 03:39:30;;;;;;;5.22;3.72;;;10.20;99.90;;;;;;5086414;28;20073;-80
2022/03/13 03:41:56;;;;;;;6.82;3.67;;;10.20;99.90;;;;;;5095709;28;20028;-80
2022/03/13 03:44:23;;;;;;;6.65;4.00;;;10.20;99.90;;;;;;5087752;28;20123;-79
2022/03/13 03:46:50;;;;;;;8.95;3.72;;;10.10;99.90;;;;;;5095868;28;20024;-78
2022/03/13 03:49:17;;;;;;;5.45;3.63;;;10.10;99.90;;;;;;5097408;28;20024;-80
2022/03/13 03:51:43;;;;;;;6.63;3.83;;;10.10;99.90;;;;;;5097238;28;20085;-81
2022/03/13 03:54:10;;;;;;;7.15;3.80;;;10.10;99.90;;;;;;5096072;28;20383;-79
2022/03/13 03:56:36;;;;;;;6.63;3.72;;;10.10;99.90;;;;;;5095704;28;20025;-79
2022/03/13 03:59:03;;;;;;;4.75;3.53;;;10.00;99.90;;;;;;5096051;28;20028;-79
2022/03/13 04:01:40;;;;;;;6.65;3.45;;;10.00;99.90;;;;;;5095926;28;20059;-79
2022/03/13 04:04:08;;;;;;;5.80;3.63;;;10.00;99.90;;;;;;5097076;28;20091;-80
2022/03/13 04:06:38;;;;;;;4.88;3.30;;;10.00;99.90;;;;;;5097416;28;20388;-80
2022/03/13 04:09:05;;;;;;;4.88;3.22;;;9.90;99.90;;;;;;5096831;28;20027;-80
2022/03/13 04:11:31;;;;;;;4.57;3.22;;;9.90;99.90;;;;;;5095496;28;20093;-79
2022/03/13 04:13:58;;;;;;;4.68;3.28;;;10.00;99.90;;;;;;5099503;28;20115;-79
2022/03/13 04:16:24;;;;;;;8.02;3.33;;;10.00;99.90;;;;;;5099726;28;20035;-79
2022/03/13 04:18:50;;;;;;;5.75;3.80;;;9.90;99.90;;;;;;5099506;28;20099;-79
2022/03/13 04:21:16;;;;;;;11.18;5.00;;;10.00;99.90;;;;;;5100898;28;20527;-79
2022/03/13 04:23:42;;;;;;;4.50;3.45;;;10.00;99.90;;;;;;5100462;28;20069;-79
2022/03/13 04:26:08;;;;;;;5.30;4.38;;;9.90;99.90;;;;;;5100902;28;20024;-80
2022/03/13 04:28:35;;;;;;;8.45;3.55;;;9.90;99.90;;;;;;5100860;28;20017;-80
2022/03/13 04:31:01;;;;;;;14.40;4.75;;;9.90;99.90;;;;;;5100504;28;20027;-79
2022/03/13 04:33:28;;;;;;;9.65;5.10;;;9.90;99.90;;;;;;5100587;28;20028;-79
2022/03/13 04:36:00;;;;;;;8.73;4.55;;;9.90;99.90;;;;;;5099324;28;20502;-80
2022/03/13 04:38:27;;;;;;;7.03;3.97;;;9.90;99.90;;;;;;5100095;28;20035;-79
2022/03/13 04:40:57;;;;;;;12.00;4.50;;;9.80;99.90;;;;;;5099480;28;20089;-79
2022/03/13 04:43:23;;;;;;;5.30;4.18;;;9.80;99.90;;;;;;5100276;28;20028;-79
2022/03/13 04:45:51;;;;;;;9.50;4.15;;;9.80;99.90;;;;;;5099447;28;20020;-79
2022/03/13 04:48:17;;;;;;;7.18;3.85;;;9.80;99.90;;;;;;5098945;28;20028;-80
2022/03/13 04:50:45;;;;;;;9.93;4.53;;;9.80;99.90;;;;;;5100512;28;20047;-79
2022/03/13 04:53:11;;;;;;;8.57;4.38;;;9.80;99.90;;;;;;5100198;28;20087;-79
2022/03/13 04:55:37;;;;;;;13.70;3.97;;;9.80;99.90;;;;;;5098981;28;20039;-79
2022/03/13 04:58:03;;;;;;;10.73;5.05;;;9.80;99.90;;;;;;5099960;28;20496;-80
2022/03/13 05:00:29;;;;;;;7.88;4.40;;;9.70;99.90;;;;;;5098778;28;20055;-80
2022/03/13 05:02:55;;;;;;;15.02;6.13;;;9.70;99.90;;;;;;5100088;28;20028;-80
2022/03/13 05:05:22;;;;;;;6.55;4.07;;;9.70;99.90;;;;;;5098714;28;20024;-80
2022/03/13 05:07:52;;;;;;;8.52;4.40;;;9.70;99.90;;;;;;5098415;28;20070;-80
2022/03/13 05:10:19;;;;;;;6.78;4.47;;;9.70;99.90;;;;;;5100039;28;20032;-80
2022/03/13 05:12:48;;;;;;;10.50;4.90;;;9.70;99.90;;;;;;5098338;28;20422;-80
2022/03/13 05:15:14;;;;;;;10.32;5.47;;;9.60;99.90;;;;;;5099886;28;20081;-80
2022/03/13 05:17:40;;;;;;;12.95;5.32;;;9.70;99.90;;;;;;5098750;28;20063;-80
2022/03/13 05:20:06;;;;;;;14.77;5.10;;;9.70;99.90;;;;;;5098476;28;20032;-80
2022/03/13 05:22:32;;;;;;;11.10;5.60;;;9.70;99.90;;;;;;5097872;28;20067;-80
2022/03/13 05:24:58;;;;;;;8.38;4.30;;;9.70;99.90;;;;;;5098483;28;20028;-80
2022/03/13 05:27:24;;;;;;;10.10;4.20;;;9.70;99.90;;;;;;5098346;28;20024;-80
2022/03/13 05:29:52;;;;;;;12.88;4.70;;;9.70;99.90;;;;;;5099921;28;20388;-80
2022/03/13 05:32:18;;;;;;;10.23;5.38;;;9.70;99.90;;;;;;5099662;28;20497;-79
2022/03/13 05:34:46;;;;;;;13.15;4.80;;;9.80;99.90;;;;;;5099531;28;20039;-80
2022/03/13 05:37:12;;;;;;;14.20;4.38;;;9.80;99.90;;;;;;5097875;28;20036;-80
2022/03/13 05:39:37;;;;;;;12.77;5.13;;;9.80;99.90;;;;;;5099424;28;20114;-80
2022/03/13 05:42:05;;;;;;;12.00;6.25;;;9.80;99.90;;;;;;5099314;28;20074;-80
2022/03/13 05:44:31;;;;;;;7.82;5.10;;;9.80;99.90;;;;;;5097985;28;20036;-80
2022/03/13 05:46:57;;;;;;;7.05;4.30;;;9.80;99.90;;;;;;5098063;28;20016;-80
2022/03/13 05:49:23;;;;;;;9.07;4.03;;;9.80;99.90;;;;;;5099311;28;20424;-80
2022/03/13 05:51:49;;;;;;;7.40;4.05;;;9.80;99.90;;;;;;5098848;28;20099;-81
2022/03/13 05:54:15;;;;;;;14.32;5.70;;;9.80;99.90;;;;;;5098077;28;20142;-79
2022/03/13 05:56:41;;;;;;;8.52;4.13;;;9.80;99.90;;;;;;5099145;28;20407;-79
2022/03/13 05:59:08;;;;;;;11.27;4.47;;;9.90;99.90;;;;;;5097889;28;20510;-79
2022/03/13 06:01:34;;;;;;;9.52;4.93;;;9.90;99.90;;;;;;5097692;28;20032;-80
2022/03/13 06:04:00;;;;;;;15.38;4.82;;;9.80;99.90;;;;;;5099236;28;20085;-79
2022/03/13 06:06:26;;;;;;;7.50;4.05;;;9.80;99.90;;;;;;5097798;28;20028;-81
2022/03/13 06:08:52;;;;;;;7.65;4.75;;;9.90;99.90;;;;;;5098548;28;20024;-80
2022/03/13 06:11:18;;;;;;;11.20;4.55;;;9.90;99.90;;;;;;5097333;28;20067;-80
2022/03/13 06:13:44;;;;;;;7.80;3.40;;;9.90;99.90;;;;;;5098981;28;20031;-80
2022/03/13 06:16:09;;;;;;;7.68;4.38;;;9.90;99.90;;;;;;5099216;28;20053;-81
2022/03/13 06:18:37;;;;;;;10.93;5.93;;;9.90;99.90;;;;;;5098961;28;20166;-79
2022/03/13 06:21:05;;;;;;;11.65;4.13;;;10.00;99.90;;;;;;5098543;28;20016;-80
2022/03/13 06:23:31;;;;;;;10.77;4.38;;;9.90;99.90;;;;;;5097170;28;20032;-78
2022/03/13 06:25:58;;;;;;;10.35;4.20;;;10.00;99.90;;;;;;5097534;28;20043;-79
2022/03/13 06:28:25;;;;;;;9.80;4.85;;;10.00;99.90;;;;;;5098738;28;20016;-80
2022/03/13 06:30:51;;;;;;;8.10;4.65;;;10.00;99.90;;;;;;5085072;28;20074;-80
2022/03/13 06:33:17;;;;;;;8.18;4.72;;;10.00;99.90;;;;;;5098295;28;20028;-80
2022/03/13 06:35:43;;;;;;;10.48;4.75;;;10.00;99.90;;;;;;5097575;28;20020;-80
2022/03/13 06:38:08;;;;;;;6.53;4.70;;;10.10;99.90;;;;;;5097948;28;20031;-81
2022/03/13 06:40:34;;;;;;;10.35;4.25;;;10.10;99.90;;;;;;5096698;28;20420;-80
2022/03/13 06:43:00;;;;;;;10.73;5.32;;;10.10;99.90;;;;;;5098218;28;20066;-80
2022/03/13 06:45:26;;;;;;;13.45;5.43;;;10.20;99.90;;;;;;5095644;28;20043;-79
2022/03/13 06:47:52;;;;;;;12.65;4.93;;;10.10;99.90;;;;;;5096747;28;20396;-80
2022/03/13 06:50:22;;;;;;;16.52;5.35;;;10.10;99.90;;;;;;5098258;28;20449;-79
2022/03/13 06:52:49;;;;;;;5.37;4.43;;;10.20;99.90;;;;;;5096535;28;20430;-80
2022/03/13 06:55:16;;;;;;;13.40;5.05;;;10.20;99.90;;;;;;5096695;28;20028;-79
2022/03/13 06:57:46;;;;;;;7.38;3.92;;;10.20;99.90;;;;;;5096507;28;20077;-80
2022/03/13 07:00:13;;;;;;;8.52;4.18;;;10.20;99.90;;;;;;5097800;28;20016;-79
2022/03/13 07:02:38;;;;;;;12.15;4.43;;;10.30;99.90;;;;;;5097831;28;20046;-81
2022/03/13 07:05:05;;;;;;;12.10;5.43;;;10.30;99.90;;;;;;5097896;28;20107;-80
2022/03/13 07:07:31;;;;;;;10.10;4.50;;;10.30;99.90;;;;;;5097378;28;20497;-80
2022/03/13 07:09:57;;;;;;;7.30;4.38;;;10.30;99.90;;;;;;5096500;28;20059;-80
2022/03/13 07:12:24;;;;;;;9.82;4.60;;;10.30;99.90;;;;;;5097863;28;20059;-80
2022/03/13 07:14:51;;;;;;;9.93;4.95;;;10.30;99.90;;;;;;5096179;28;20483;-80
2022/03/13 07:17:18;;;;;;;11.52;4.00;;;10.30;99.90;;;;;;5096515;28;20099;-79
2022/03/13 07:19:45;;;;;;;13.98;5.65;;;10.40;99.90;;;;;;5097637;28;20024;-79
2022/03/13 07:22:17;;;;;;;8.05;4.20;;;10.40;99.90;;;;;;5095710;28;20062;-79
2022/03/13 07:24:46;;;;;;;8.15;4.43;;;10.50;99.90;;;;;;5096204;28;20554;-79
2022/03/13 07:27:14;;;;;;;11.68;4.95;;;10.50;99.90;;;;;;5095988;28;20028;-79
2022/03/13 07:29:40;;;;;;;10.63;5.00;;;10.50;99.90;;;;;;5096463;28;20480;-80
2022/03/13 07:32:06;;;;;;;12.48;5.03;;;10.50;99.90;;;;;;5096171;28;20434;-79
2022/03/13 07:34:32;;;;;;;11.70;5.10;;;10.50;99.90;;;;;;5097652;28;20094;-81
2022/03/13 07:36:58;;;;;;;9.25;4.82;;;10.60;99.90;;;;;;5094633;28;20099;-80
2022/03/13 07:39:25;;;;;;;9.75;5.05;;;10.60;99.90;;;;;;5097692;28;20130;-80
2022/03/13 07:41:54;;;;;;;14.05;5.18;;;10.60;99.90;;;;;;5095793;28;20131;-80
2022/03/13 07:44:21;;;;;;;12.57;5.10;;;10.70;99.90;;;;;;5095973;28;20031;-81
2022/03/13 07:46:47;;;;;;;11.13;5.20;;;10.70;99.90;;;;;;5100756;28;20145;-80
2022/03/13 07:49:13;;;;;;;10.20;4.97;;;10.70;99.90;;;;;;5102717;28;20050;-80
2022/03/13 07:51:39;;;;;;;15.90;5.53;;;10.70;99.90;;;;;;5102249;28;20051;-79
2022/03/13 07:54:05;;;;;;;11.27;5.60;;;10.70;99.90;;;;;;5102548;28;20031;-80
2022/03/13 07:56:31;;;;;;;10.52;5.55;;;10.80;99.90;;;;;;5102333;28;20111;-80
2022/03/13 07:58:57;;;;;;;11.23;5.57;;;10.70;99.90;;;;;;5102628;28;20028;-82
2022/03/13 08:01:23;;;;;;;11.70;5.57;;;10.80;99.90;;;;;;5102441;28;20038;-79
2022/03/13 08:03:51;;;;;;;11.00;4.88;;;10.90;99.90;;;;;;5102532;28;20024;-79
2022/03/13 08:06:16;;;;;;;12.60;5.20;;;10.80;99.90;;;;;;5103714;28;20074;-80
2022/03/13 08:08:42;;;;;;;11.88;4.95;;;10.90;99.90;;;;;;5103453;28;20024;-80
2022/03/13 08:11:08;;;;;;;13.13;5.93;;;10.90;99.90;;;;;;5103694;28;20028;-79
2022/03/13 08:13:34;;;;;;;10.68;4.90;;;11.00;99.90;;;;;;5102360;28;20154;-79
2022/03/13 08:16:00;;;;;;;14.30;5.18;;;11.00;99.90;;;;;;5102312;28;20035;-81
2022/03/13 08:18:27;;;;;;;14.57;6.25;;;11.10;99.90;;;;;;5103755;28;20028;-80
2022/03/13 08:20:53;;;;;;;17.02;6.97;;;11.20;99.90;;;;;;5102327;28;20073;-80
2022/03/13 08:23:19;;;;;;;16.35;5.72;;;11.20;99.90;;;;;;5102133;28;20020;-80
2022/03/13 08:25:45;;;;;;;14.32;5.30;;;11.20;99.90;;;;;;5102510;28;20020;-81
2022/03/13 08:28:11;;;;;;;7.22;4.32;;;11.20;99.90;;;;;;5102011;28;20507;-82
2022/03/13 08:30:37;;;;;;;10.23;4.93;;;11.30;99.90;;;;;;5103311;28;20077;-80
2022/03/13 08:33:04;;;;;;;13.10;5.78;;;11.30;99.90;;;;;;5104172;28;20027;-81
2022/03/13 08:35:30;;;;;;;10.63;4.70;;;11.30;99.90;;;;;;5103183;28;20055;-81
2022/03/13 08:37:57;;;;;;;13.43;4.85;;;11.30;99.90;;;;;;5101836;28;20449;-80
2022/03/13 08:40:26;;;;;;;8.02;4.63;;;11.30;99.90;;;;;;5101845;28;20059;-81
2022/03/13 08:42:53;;;;;;;8.30;4.43;;;11.20;99.90;;;;;;5102208;28;20028;-80
2022/03/13 08:45:19;;;;;;;7.35;4.43;;;11.20;99.90;;;;;;5101712;28;20028;-80
2022/03/13 08:47:47;;;;;;;11.32;4.82;;;11.30;99.90;;;;;;5102035;28;20030;-80
2022/03/13 08:50:13;;;;;;;12.15;4.82;;;11.30;99.90;;;;;;5101905;28;20038;-81
2022/03/13 08:52:39;;;;;;;10.82;4.55;;;11.30;99.90;;;;;;5101858;28;20016;-81
2022/03/13 08:55:08;;;;;;;9.48;4.10;;;11.30;99.90;;;;;;5089794;28;20031;-79
2022/03/13 08:57:34;;;;;;;10.15;4.70;;;11.30;99.90;;;;;;5100676;28;20103;-79
2022/03/13 09:00:00;;;;;;;9.13;4.60;;;11.30;99.90;;;;;;5097719;28;20056;-79
2022/03/13 09:02:26;;;;;;;11.63;5.55;;;11.20;99.90;;;;;;5098831;28;20053;-78
2022/03/13 09:04:52;;;;;;;10.13;3.70;;;11.10;99.90;;;;;;5098448;28;20438;-80
2022/03/13 09:07:18;;;;;;;4.72;2.40;;;10.90;99.90;;;;;;5099671;28;20027;-79
2022/03/13 09:09:44;;;;;;;3.53;2.33;;;10.80;99.90;;;;;;5099825;28;20488;-80
2022/03/13 09:12:10;;;;;;;3.45;2.65;;;10.40;99.90;;;;;;5099842;28;20469;-80
2022/03/13 09:14:38;;;;;;;2.58;2.30;;;10.10;99.90;;;;;;5093246;28;20078;-79
2022/03/13 09:17:04;;;;;;;4.45;3.08;;;9.90;99.90;;;;;;5079137;28;20024;-79
2022/03/13 09:19:30;;;;;;;5.95;3.97;;;9.70;99.90;;;;;;5081536;28;20622;-79
2022/03/13 09:21:55;;;;;;;4.25;3.40;;;9.40;99.90;;;;;;5098066;28;20097;-79
2022/03/13 09:24:21;;;;;;;2.72;2.53;;;9.30;99.90;;;;;;5097666;28;20024;-80
2022/03/13 09:26:47;;;;;;;4.13;2.50;;;9.10;99.90;;;;;;5097880;28;20013;-78
2022/03/13 09:29:14;;;;;;;5.85;2.78;;;9.00;99.90;;;;;;5098973;28;20464;-80
2022/03/13 09:31:40;;;;;;;7.00;4.60;;;8.90;99.90;;;;;;5091692;28;20545;-79
2022/03/13 09:34:06;;;;;;;4.30;3.67;;;8.90;99.90;;;;;;5084390;28;20405;-78
2022/03/13 09:36:36;;;;;;;5.05;3.60;;;8.90;99.90;;;;;;5098056;28;20102;-78
2022/03/13 09:39:04;;;;;;;6.32;3.35;;;8.90;99.90;;;;;;5099470;28;20036;-79
2022/03/13 09:41:30;;;;;;;7.40;5.07;;;8.90;99.90;;;;;;5097824;28;20036;-79
2022/03/13 09:43:55;;;;;;;5.75;4.20;;;8.90;99.90;;;;;;5099496;28;20040;-78
2022/03/13 09:46:21;;;;;;;5.05;3.35;;;8.90;99.90;;;;;;5099211;28;20016;-79
2022/03/13 09:48:54;;;;;;;11.13;4.40;;;8.90;99.90;;;;;;5099248;28;20107;-77
2022/03/13 09:51:20;;;;;;;5.35;3.70;;;8.90;99.90;;;;;;5099356;28;20012;-78
2022/03/13 09:53:46;;;;;;;4.18;3.55;;;8.80;99.90;;;;;;5097872;28;20078;-77
2022/03/13 09:56:12;;;;;;;9.82;8.40;;;8.80;99.90;;;;;;5098921;28;20090;-78
2022/03/13 09:58:39;;;;;;;5.47;3.50;;;8.90;99.90;;;;;;5097647;28;20034;-79
2022/03/13 10:01:07;;;;;;;4.53;3.33;;;8.90;99.90;;;;;;5097582;28;20115;-78
2022/03/13 10:03:33;;;;;;;6.00;4.25;;;8.90;99.90;;;;;;5097544;28;20169;-76
2022/03/13 10:05:59;;;;;;;13.50;3.88;;;8.90;99.90;;;;;;5097461;28;20020;-77
2022/03/13 10:08:30;;;;;;;6.80;3.60;;;9.00;99.90;;;;;;5098572;28;20020;-80
2022/03/13 10:10:56;;;;;;;8.00;3.42;;;9.00;99.90;;;;;;5088419;28;20393;-81
2022/03/13 10:13:45;;;;;;;5.95;3.40;;;9.10;99.90;;;;;;5098548;28;20111;-78
2022/03/13 10:16:19;;;;;;;10.10;3.95;;;9.10;99.90;;;;;;5098765;28;20201;-76
2022/03/13 10:18:45;;;;;;;4.22;3.38;;;9.20;99.90;;;;;;5097240;28;20034;-81
2022/03/13 10:21:16;;;;;;;5.57;3.50;;;9.20;99.90;;;;;;5098633;28;20066;-78
2022/03/13 10:23:42;;;;;;;;;;;9.20;99.90;;;;;;5078869;28;20040;-78
2022/03/13 10:26:08;;;;;;;4.40;3.13;;;9.20;99.90;;;;;;5089809;28;19911;-79
2022/03/13 10:28:36;;;;;;;5.05;3.60;;;9.30;99.90;;;;;;5097471;28;20100;-79
2022/03/13 10:31:02;;;;;;;4.32;3.40;;;9.30;99.90;;;;;;5097022;28;20052;-79
2022/03/13 10:34:00;;;;;;;3.67;3.13;;;9.30;99.90;;;;;;5097002;28;20027;-79
2022/03/13 10:36:31;;;;;;;4.07;3.40;;;9.20;99.90;;;;;;5084891;28;20477;-79
2022/03/13 10:38:59;;;;;;;5.70;3.47;;;9.10;99.90;;;;;;5098251;28;20040;-80
2022/03/13 10:41:42;;;;;;;3.70;3.08;;;9.10;99.90;;;;;;5098051;28;20421;-79
2022/03/13 10:44:13;;;;;;;2.97;2.40;;;9.00;99.90;;;;;;5087502;28;20056;-79
2022/03/13 10:46:42;;;;;;;3.88;3.00;;;8.90;99.90;;;;;;5095323;28;20051;-79
2022/03/13 10:49:09;;;;;;;7.35;2.80;;;8.80;99.90;;;;;;5096559;28;20020;-80
2022/03/13 10:51:44;;;;;;;2.40;2.20;;;8.80;99.90;;;;;;5097694;28;20037;-79
2022/03/13 10:54:27;;;;;;;2.70;2.50;;;8.80;99.90;;;;;;5098264;28;20422;-79
2022/03/13 10:57:06;;;;;;;3.05;2.20;;;8.80;99.90;;;;;;5098094;28;20077;-79
2022/03/13 10:59:33;;;;;;;3.15;2.85;;;8.90;99.90;;;;;;5096072;28;20103;-80
2022/03/13 11:02:18;;;;;;;3.67;2.97;;;9.00;99.90;;;;;;5097925;28;20020;-81
2022/03/13 11:04:50;;;;;;;2.80;2.47;;;9.10;99.90;;;;;;5096738;28;20484;-80
2022/03/13 11:07:17;;;;;;;3.42;2.88;;;9.20;99.90;;;;;;5096617;28;20115;-80
2022/03/13 11:09:43;;;;;;;3.38;3.08;;;9.20;99.90;;;;;;5097011;28;20024;-80
2022/03/13 11:12:17;;;;;;;4.50;2.97;;;9.30;99.90;;;;;;5098430;28;20028;-80
2022/03/13 11:14:45;;;;;;;4.22;2.97;;;9.40;99.90;;;;;;5088797;28;20020;-80
2022/03/13 11:17:15;;;;;;;3.17;2.80;;;9.40;99.90;;;;;;5078129;28;20459;-81
2022/03/13 11:19:41;;;;;;;2.65;2.03;;;9.40;99.90;;;;;;5087568;28;20034;-80
2022/03/13 11:22:17;;;;;;;2.65;2.40;;;9.40;99.90;;;;;;5092195;28;20020;-79
2022/03/13 11:24:46;;;;;;;4.03;2.90;;;9.30;99.90;;;;;;5077798;28;20099;-78
2022/03/13 11:27:13;;;;;;;2.97;2.70;;;9.20;99.90;;;;;;5093619;28;20026;-79
2022/03/13 11:29:53;;;;;;;4.60;2.58;;;9.20;99.90;;;;;;5095632;28;20023;-80
2022/03/13 11:32:42;;;;;;;3.58;2.75;;;9.30;99.90;;;;;;5096958;28;20012;-79
2022/03/13 11:35:08;;;;;;;5.78;3.97;;;9.40;99.90;;;;;;5090567;28;20054;-80
2022/03/13 11:37:34;;;;;;;5.93;3.92;;;9.40;99.90;;;;;;5094976;28;20672;-79
2022/03/13 11:40:00;;;;;;;3.05;2.75;;;9.40;99.90;;;;;;5095231;28;20079;-80
2022/03/13 11:42:26;;;;;;;2.90;2.60;;;9.40;99.90;;;;;;5095739;28;20190;-80
2022/03/13 11:44:52;;;;;;;3.13;2.60;;;9.40;99.90;;;;;;5096329;28;20116;-81
2022/03/13 11:47:23;;;;;;;2.92;2.50;;;9.40;99.90;;;;;;5093735;28;20468;-79
2022/03/13 11:49:50;;;;;;;4.20;3.25;;;9.40;99.90;;;;;;5095990;28;20021;-80
2022/03/13 11:52:16;;;;;;;3.40;3.10;;;9.30;99.90;;;;;;5097180;28;20027;-80
2022/03/13 11:54:59;;;;;;;4.25;3.30;;;9.30;99.90;;;;;;5095809;28;20036;-79
2022/03/13 11:58:00;;;;;;;5.43;3.83;;;9.30;99.90;;;;;;5095599;28;20020;-80
2022/03/13 12:00:28;;;;;;;4.30;3.28;;;9.30;99.90;;;;;;5081931;28;20119;-79
2022/03/13 12:03:07;;;;;;;7.13;5.20;;;9.20;99.90;;;;;;5095256;28;20113;-81
2022/03/13 12:05:33;;;;;;;4.82;4.20;;;9.30;99.90;;;;;;5096514;28;20035;-79
2022/03/13 12:08:08;;;;;;;4.90;3.92;;;9.30;99.90;;;;;;5095141;28;20021;-81
2022/03/13 12:10:42;;;;;;;6.60;4.90;;;9.30;99.90;;;;;;5094918;28;20050;-81
2022/03/13 12:13:13;;;;;;;7.65;5.72;;;9.20;99.90;;;;;;5088377;28;20028;-81
2022/03/13 12:15:40;;;;;;;4.20;3.22;;;9.30;99.90;;;;;;5092815;28;20028;-79
2022/03/13 12:18:21;;;;;;;9.93;5.80;;;9.30;99.90;;;;;;5096247;28;20024;-80
2022/03/13 12:20:48;;;;;;;4.88;3.05;;;9.30;99.90;;;;;;5094868;28;20419;-79
2022/03/13 12:23:26;;;;;;;4.53;3.58;;;9.30;99.90;;;;;;5093037;28;20026;-80
2022/03/13 12:25:54;;;;;;;4.25;3.45;;;9.20;99.90;;;;;;5096026;28;20020;-79
2022/03/13 12:28:33;;;;;;;11.40;4.32;;;9.10;99.90;;;;;;5091866;28;20373;-81
2022/03/13 12:31:01;;;;;;;5.20;3.05;;;9.00;99.90;;;;;;5092729;28;20026;-79
2022/03/13 12:33:31;;;;;;;2.45;2.20;;;8.90;99.90;;;;;;5093784;28;20032;-81
2022/03/13 12:35:59;;;;;;;6.75;2.75;;;8.80;99.90;;;;;;5097229;28;20024;-81
2022/03/13 12:38:30;;;;;;;9.40;5.20;;;8.70;99.90;;;;;;5093701;28;20081;-82
2022/03/13 12:40:58;;;;;;;5.15;2.97;;;8.70;99.90;;;;;;5090120;28;20024;-79
2022/03/13 12:43:44;;;;;;;6.15;3.40;;;8.70;99.90;;;;;;5092653;28;20024;-83
2022/03/13 12:46:11;;;;;;;4.07;3.40;;;8.60;99.90;;;;;;5085413;28;20163;-80
2022/03/13 12:48:37;;;;;;;4.30;3.42;;;8.60;99.90;;;;;;5091494;28;20024;-80
2022/03/13 12:51:04;;;;;;;8.82;4.50;;;8.50;99.90;;;;;;5089357;28;20028;-79
2022/03/13 12:53:32;;;;;;;7.18;3.72;;;8.50;99.90;;;;;;5097746;28;20028;-79
2022/03/13 12:55:59;;;;;;;8.40;5.35;;;8.50;99.90;;;;;;5096920;28;20016;-79